Terminal Aerodrome Forecast
Issued by NWS

Home | Current Version | Previous Version | Text Only | Print | Product List | Glossary On
Versions: 1 2 3 4 5 6 7 8 9 10 11 12 13 14 15 16 17 18 19 20 21 22 23 24 25 26 27 28 29 30 31 32 33 34
775
FTUS45 KREV 201210 RRA
TAFTVL
TAF
KTVL 201210Z 2012/2112 20010G20KT 2SM -SN BR FEW004 BKN015 OVC020
     FM201400 18009KT 1/2SM SN VV004
     FM202300 18010G28KT 2SM -SN BR FEW005 OVC012=

USA.gov is the U.S. government's official web portal to all federal, state and local government web resources and services.